createdAt,value
2022-11-28T00:01:37.473Z,48.33
2022-11-28T00:04:05.900Z,45.97
2022-11-28T00:06:36.922Z,44.00
2022-11-28T00:09:07.052Z,47.97
2022-11-28T00:11:35.405Z,43.93
2022-11-28T00:14:03.430Z,44.20
2022-11-28T00:16:31.489Z,43.73
2022-11-28T00:19:01.593Z,43.37
2022-11-28T00:21:31.168Z,44.53
2022-11-28T00:24:00.483Z,43.57
2022-11-28T00:26:32.083Z,46.53
2022-11-28T00:29:01.388Z,47.60
2022-11-28T00:31:31.284Z,47.70
2022-11-28T00:33:59.406Z,43.47
2022-11-28T00:36:27.383Z,45.13
2022-11-28T00:38:55.600Z,43.60
2022-11-28T00:41:25.564Z,40.40
2022-11-28T00:43:55.476Z,40.53
2022-11-28T00:46:24.539Z,40.07
2022-11-28T00:48:52.818Z,40.67
2022-11-28T00:51:22.784Z,38.90
2022-11-28T00:53:52.716Z,41.63
2022-11-28T00:56:23.239Z,38.33
2022-11-28T00:58:51.715Z,39.33
2022-11-28T01:01:23.570Z,39.63
2022-11-28T01:03:53.607Z,39.43
2022-11-28T01:06:23.627Z,37.60
2022-11-28T01:08:51.737Z,37.43
2022-11-28T01:11:20.320Z,37.03
2022-11-28T01:13:48.427Z,37.57
2022-11-28T01:16:16.883Z,36.53
2022-11-28T01:18:46.405Z,35.73
2022-11-28T01:21:14.723Z,35.40
2022-11-28T01:23:42.750Z,35.43
2022-11-28T01:26:13.079Z,36.67
2022-11-28T01:28:41.063Z,37.33
2022-11-28T01:31:12.493Z,36.43
2022-11-28T01:33:40.523Z,33.90
2022-11-28T01:36:11.404Z,37.57
2022-11-28T01:38:39.882Z,33.93
2022-11-28T01:41:08.137Z,36.47
2022-11-28T01:43:36.919Z,34.67
2022-11-28T01:46:06.799Z,37.77
2022-11-28T01:48:41.216Z,37.03
2022-11-28T01:51:11.930Z,38.60
2022-11-28T01:53:44.060Z,35.03
2022-11-28T01:56:18.669Z,38.50
2022-11-28T01:58:50.117Z,33.77
2022-11-28T02:01:19.811Z,35.00
2022-11-28T02:03:50.636Z,33.97
2022-11-28T02:06:23.285Z,34.37
2022-11-28T02:08:52.691Z,36.57
2022-11-28T02:11:46.386Z,39.73
2022-11-28T02:14:30.887Z,39.93
2022-11-28T02:17:14.199Z,34.20
2022-11-28T02:20:16.451Z,36.47
2022-11-28T02:22:52.038Z,33.30
2022-11-28T02:25:40.454Z,37.57
2022-11-28T02:28:34.674Z,36.20
2022-11-28T02:31:18.208Z,37.87
2022-11-28T02:33:50.020Z,39.33
2022-11-28T02:36:25.040Z,37.37
2022-11-28T02:39:04.445Z,38.43
2022-11-28T02:41:38.160Z,41.07
2022-11-28T02:44:15.532Z,39.00
2022-11-28T02:46:51.829Z,37.30
2022-11-28T02:49:24.847Z,42.33
2022-11-28T02:51:57.567Z,40.43
2022-11-28T02:54:27.317Z,39.07
2022-11-28T02:56:56.515Z,39.83
2022-11-28T02:59:34.114Z,40.50
2022-11-28T03:02:03.260Z,40.27
2022-11-28T03:04:40.468Z,43.63
2022-11-28T03:07:22.305Z,40.03
2022-11-28T03:09:59.571Z,40.27
2022-11-28T03:12:35.781Z,42.47
2022-11-28T03:15:07.211Z,40.33
2022-11-28T03:17:51.220Z,39.07
2022-11-28T03:20:25.160Z,39.23
2022-11-28T03:23:06.070Z,38.97
2022-11-28T03:25:38.984Z,37.80
2022-11-28T03:28:11.898Z,37.90
2022-11-28T03:30:46.087Z,44.07
2022-11-28T03:33:17.133Z,39.13
2022-11-28T03:35:50.260Z,37.77
2022-11-28T03:38:22.782Z,41.57
2022-11-28T03:40:55.853Z,39.17
2022-11-28T03:43:29.073Z,38.17
2022-11-28T03:46:00.388Z,38.30
2022-11-28T03:48:32.585Z,39.40
2022-11-28T03:51:04.623Z,45.13
2022-11-28T03:53:37.009Z,39.70
2022-11-28T03:56:11.435Z,37.43
2022-11-28T03:58:44.862Z,41.03
2022-11-28T04:01:21.987Z,37.70
2022-11-28T04:03:55.003Z,39.57
2022-11-28T04:06:29.086Z,37.93
2022-11-28T04:09:04.827Z,38.53
2022-11-28T04:11:38.555Z,38.33
2022-11-28T04:14:14.163Z,37.10
2022-11-28T04:16:53.955Z,39.70
2022-11-28T04:19:30.018Z,38.20
2022-11-28T04:22:04.140Z,36.07
2022-11-28T04:24:37.492Z,41.87
2022-11-28T04:27:09.126Z,42.07
2022-11-28T04:29:44.035Z,38.87
2022-11-28T04:32:14.742Z,36.90
2022-11-28T04:34:46.559Z,38.80
2022-11-28T04:37:17.383Z,39.40
2022-11-28T04:39:49.127Z,39.10
2022-11-28T04:42:21.751Z,34.90
2022-11-28T04:44:54.411Z,36.13
2022-11-28T04:47:23.347Z,36.27
2022-11-28T04:49:51.567Z,36.77
2022-11-28T04:52:25.354Z,37.33
2022-11-28T04:54:58.751Z,34.67
2022-11-28T04:57:31.670Z,37.90
2022-11-28T05:00:02.527Z,38.40
2022-11-28T05:02:31.336Z,34.97
2022-11-28T05:04:59.682Z,37.47
2022-11-28T05:07:29.211Z,34.70
2022-11-28T05:09:57.682Z,36.77
2022-11-28T05:12:25.692Z,39.47
2022-11-28T05:14:53.693Z,36.87
2022-11-28T05:17:21.724Z,33.93
2022-11-28T05:19:49.686Z,35.63
2022-11-28T05:22:17.685Z,34.43
2022-11-28T05:24:47.139Z,32.93
2022-11-28T05:27:15.141Z,34.00
2022-11-28T05:29:48.113Z,33.70
2022-11-28T05:32:19.946Z,34.10
2022-11-28T05:34:48.151Z,37.30
2022-11-28T05:37:16.804Z,32.53
2022-11-28T05:39:46.159Z,32.57
2022-11-28T05:42:14.128Z,30.87
2022-11-28T05:44:42.124Z,35.37
2022-11-28T05:47:10.197Z,31.53
2022-11-28T05:49:38.223Z,33.63
2022-11-28T05:52:06.262Z,32.70
2022-11-28T05:54:34.316Z,32.60
2022-11-28T05:57:06.179Z,33.50
2022-11-28T05:59:34.443Z,35.47
2022-11-28T06:02:02.532Z,30.93
2022-11-28T06:04:30.600Z,37.77
2022-11-28T06:06:58.604Z,34.10
2022-11-28T06:09:26.608Z,34.97
2022-11-28T06:11:54.715Z,32.93
2022-11-28T06:14:24.069Z,29.97
2022-11-28T06:16:52.583Z,30.03
2022-11-28T06:19:20.632Z,32.33
2022-11-28T06:21:50.797Z,30.50
2022-11-28T06:24:21.859Z,31.37
2022-11-28T06:26:49.887Z,35.93
2022-11-28T06:29:17.860Z,30.83
2022-11-28T06:31:47.345Z,29.67
2022-11-28T06:34:15.446Z,32.43
2022-11-28T06:36:44.576Z,28.37
2022-11-28T06:39:15.647Z,29.07
2022-11-28T06:41:44.216Z,29.47
2022-11-28T06:44:15.106Z,32.63
2022-11-28T06:46:43.796Z,30.07
2022-11-28T06:49:13.986Z,30.07
2022-11-28T06:51:42.906Z,32.63
2022-11-28T06:54:11.121Z,33.77
2022-11-28T06:56:40.738Z,30.47
2022-11-28T06:59:11.276Z,34.00
2022-11-28T07:01:39.428Z,30.60
2022-11-28T07:04:07.501Z,32.70
2022-11-28T07:06:36.944Z,28.73
2022-11-28T07:09:05.599Z,32.33
2022-11-28T07:11:33.869Z,29.43
2022-11-28T07:14:02.982Z,30.77
2022-11-28T07:16:33.277Z,29.00
2022-11-28T07:19:01.867Z,28.83
2022-11-28T07:21:30.855Z,30.20
2022-11-28T07:24:00.915Z,27.30
2022-11-28T07:26:28.966Z,28.23
2022-11-28T07:28:58.261Z,31.30
2022-11-28T07:31:31.706Z,31.63
2022-11-28T07:34:02.138Z,29.37
2022-11-28T07:36:31.176Z,28.97
2022-11-28T07:39:02.908Z,30.03
2022-11-28T07:41:30.912Z,30.43
2022-11-28T07:44:00.362Z,28.73
2022-11-28T07:46:31.031Z,29.80
2022-11-28T07:48:59.189Z,29.07
2022-11-28T07:51:29.470Z,27.50
2022-11-28T07:53:57.746Z,28.57
2022-11-28T07:56:39.349Z,30.27
2022-11-28T07:59:17.560Z,27.17
2022-11-28T08:01:45.673Z,25.47
2022-11-28T08:04:13.758Z,24.27
2022-11-28T08:06:44.310Z,26.93
2022-11-28T08:09:13.045Z,26.57
2022-11-28T08:11:43.003Z,27.37
2022-11-28T08:14:12.171Z,23.83
2022-11-28T08:16:44.789Z,25.37
2022-11-28T08:19:13.267Z,25.27
2022-11-28T08:21:41.380Z,24.30
2022-11-28T08:24:09.896Z,24.60
2022-11-28T08:26:37.926Z,22.17
2022-11-28T08:29:07.447Z,24.93
2022-11-28T08:31:37.571Z,23.90
2022-11-28T08:34:07.200Z,21.50
2022-11-28T08:36:35.236Z,24.40
2022-11-28T08:41:54.226Z,23.67
2022-11-28T08:44:23.620Z,20.73
2022-11-28T08:46:51.720Z,21.63
2022-11-28T08:49:19.862Z,22.70
2022-11-28T08:51:47.858Z,20.87
2022-11-28T08:54:16.436Z,20.97
2022-11-28T08:56:45.239Z,21.60
2022-11-28T08:59:16.447Z,21.90
2022-11-28T09:01:45.985Z,23.53
2022-11-28T09:04:14.130Z,21.00
2022-11-28T09:06:42.407Z,24.30
2022-11-28T09:09:10.461Z,19.47
2022-11-28T09:11:38.737Z,22.57
2022-11-28T09:14:07.491Z,22.80
2022-11-28T09:16:35.599Z,20.93
2022-11-28T09:19:06.879Z,22.17
2022-11-28T09:21:34.900Z,21.93
2022-11-28T09:24:03.003Z,21.77
2022-11-28T09:26:34.079Z,22.87
2022-11-28T09:29:02.394Z,22.27
2022-11-28T09:31:30.436Z,24.40
2022-11-28T09:33:58.521Z,22.40
2022-11-28T09:36:28.580Z,23.27
2022-11-28T09:38:56.563Z,25.27
2022-11-28T09:41:51.112Z,20.93
2022-11-28T09:44:23.917Z,18.77
2022-11-28T09:46:55.778Z,22.47
2022-11-28T09:49:36.718Z,20.10
2022-11-28T09:52:22.809Z,19.87
2022-11-28T09:54:59.532Z,19.57
2022-11-28T09:57:33.557Z,15.73
2022-11-28T10:00:02.419Z,16.90
2022-11-28T10:02:36.804Z,19.33
2022-11-28T10:05:15.771Z,19.07
2022-11-28T10:07:59.370Z,18.60
2022-11-28T10:10:39.371Z,19.03
2022-11-28T10:13:14.900Z,20.17
2022-11-28T10:15:50.555Z,17.17
2022-11-28T10:18:29.276Z,16.50
2022-11-28T10:21:01.696Z,18.33
2022-11-28T10:23:35.761Z,17.57
2022-11-28T10:26:08.536Z,17.60
2022-11-28T10:28:39.225Z,15.60
2022-11-28T10:31:10.612Z,15.70
2022-11-28T10:33:44.334Z,18.73
2022-11-28T10:36:21.716Z,17.17
2022-11-28T10:38:53.714Z,19.27
2022-11-28T10:41:28.755Z,16.00
2022-11-28T10:44:02.999Z,17.70
2022-11-28T10:46:50.905Z,17.10
2022-11-28T10:49:30.242Z,15.83
2022-11-28T10:52:05.039Z,15.30
2022-11-28T10:54:52.787Z,19.33
2022-11-28T10:57:25.324Z,17.43
2022-11-28T11:00:04.037Z,18.67
2022-11-28T11:02:41.220Z,19.87
2022-11-28T11:05:14.365Z,15.20
2022-11-28T11:07:48.056Z,15.93
2022-11-28T11:10:19.385Z,16.80
2022-11-28T11:12:48.556Z,16.17
2022-11-28T11:15:21.328Z,19.60
2022-11-28T11:17:50.892Z,13.67
2022-11-28T11:20:33.449Z,20.03
2022-11-28T11:23:03.421Z,16.47
2022-11-28T11:25:33.632Z,15.67
2022-11-28T11:28:05.173Z,15.77
2022-11-28T11:30:38.853Z,17.47
2022-11-28T11:33:13.770Z,15.00
2022-11-28T11:35:46.032Z,15.23
2022-11-28T11:38:19.756Z,16.03
2022-11-28T11:40:51.956Z,17.57
2022-11-28T11:43:34.080Z,17.43
2022-11-28T11:46:07.298Z,14.43
2022-11-28T11:48:37.645Z,17.03
2022-11-28T11:51:06.008Z,17.13
2022-11-28T11:53:34.059Z,18.10
2022-11-28T11:56:05.241Z,18.93
2022-11-28T11:58:42.401Z,16.13
2022-11-28T12:01:12.986Z,16.60
2022-11-28T12:03:47.437Z,22.53
2022-11-28T12:06:22.998Z,16.83
2022-11-28T12:08:52.840Z,16.57
2022-11-28T12:11:27.543Z,17.70
2022-11-28T12:13:58.353Z,19.23
2022-11-28T12:16:39.199Z,23.10
2022-11-28T12:19:20.294Z,17.13
2022-11-28T12:22:03.769Z,17.90
2022-11-28T12:24:41.756Z,18.83
2022-11-28T12:27:31.894Z,20.50
2022-11-28T12:30:10.944Z,15.97
2022-11-28T12:32:49.052Z,16.17
2022-11-28T12:35:28.688Z,18.57
2022-11-28T12:38:11.125Z,16.40
2022-11-28T12:40:51.160Z,18.23
2022-11-28T12:43:35.473Z,16.33
2022-11-28T12:46:12.245Z,15.33
2022-11-28T12:48:53.996Z,17.50
2022-11-28T12:51:30.924Z,22.87
2022-11-28T12:54:11.238Z,16.90
2022-11-28T12:56:51.560Z,17.20
2022-11-28T12:59:27.946Z,21.27
2022-11-28T13:02:08.246Z,15.90
2022-11-28T13:05:00.940Z,19.10
2022-11-28T13:07:40.951Z,20.90
2022-11-28T13:10:18.966Z,21.13
2022-11-28T13:12:55.204Z,20.00
2022-11-28T13:15:37.575Z,20.10
2022-11-28T13:18:18.599Z,18.60
2022-11-28T13:20:53.368Z,21.20
2022-11-28T13:23:28.568Z,18.53
2022-11-28T13:26:04.354Z,18.07
2022-11-28T13:28:39.694Z,20.90
2022-11-28T13:31:22.718Z,20.03
2022-11-28T13:33:53.028Z,16.40
2022-11-28T13:39:31.258Z,16.73
2022-11-28T13:45:02.846Z,18.20
2022-11-28T13:47:36.015Z,16.13
2022-11-28T13:50:41.875Z,14.93
2022-11-28T13:53:26.180Z,16.73
2022-11-28T13:56:24.734Z,13.43
2022-11-28T13:58:59.140Z,15.27
2022-11-28T14:01:28.529Z,13.87
2022-11-28T14:04:08.684Z,13.80
2022-11-28T14:06:44.675Z,13.87
2022-11-28T14:09:29.649Z,15.77
2022-11-28T14:12:28.880Z,15.53
2022-11-28T14:15:10.713Z,17.13
2022-11-28T14:17:52.009Z,16.67
2022-11-28T14:20:33.216Z,21.43
2022-11-28T14:23:22.126Z,16.77
2022-11-28T14:25:51.802Z,19.93
2022-11-28T14:28:25.516Z,19.17
2022-11-28T14:31:02.190Z,21.77
2022-11-28T14:33:36.787Z,19.40
2022-11-28T14:36:24.695Z,19.93
2022-11-28T14:39:20.836Z,20.87
2022-11-28T14:42:58.747Z,19.47
2022-11-28T14:45:40.939Z,23.70
2022-11-28T14:48:18.000Z,21.33
2022-11-28T14:50:55.926Z,22.40
2022-11-28T14:53:45.530Z,18.00
2022-11-28T14:56:27.528Z,19.93
2022-11-28T14:58:59.105Z,23.53
2022-11-28T15:01:52.391Z,22.83
2022-11-28T15:04:44.617Z,22.00
2022-11-28T15:07:27.634Z,21.50
2022-11-28T15:10:08.073Z,22.70
2022-11-28T15:12:51.807Z,21.97
2022-11-28T15:15:20.473Z,23.87
2022-11-28T15:17:52.405Z,20.87
2022-11-28T15:20:25.607Z,19.57
2022-11-28T15:22:56.083Z,18.90
2022-11-28T15:25:27.136Z,25.53
2022-11-28T15:27:56.794Z,20.43
2022-11-28T15:30:27.074Z,20.20
2022-11-28T15:32:58.720Z,22.90
2022-11-28T15:35:27.713Z,18.47
2022-11-28T15:37:57.985Z,22.93
2022-11-28T15:40:32.781Z,22.50
2022-11-28T15:43:01.756Z,23.87
2022-11-28T15:45:32.313Z,25.43
2022-11-28T15:48:00.670Z,24.33
2022-11-28T15:50:31.425Z,22.00
2022-11-28T15:53:00.937Z,23.53
2022-11-28T15:55:32.640Z,23.70
2022-11-28T15:58:21.488Z,23.40
2022-11-28T16:00:55.350Z,23.63
2022-11-28T16:03:27.264Z,22.33
2022-11-28T16:05:58.553Z,23.50
2022-11-28T16:08:30.151Z,25.03
2022-11-28T16:11:01.324Z,24.00
2022-11-28T16:13:31.468Z,27.40
2022-11-28T16:16:01.434Z,27.87
2022-11-28T16:18:30.603Z,28.63
2022-11-28T16:21:00.915Z,27.77
2022-11-28T16:23:31.231Z,26.50
2022-11-28T16:26:05.999Z,25.90
2022-11-28T16:28:35.792Z,31.43
2022-11-28T16:31:10.934Z,29.23
2022-11-28T16:33:41.243Z,32.23
2022-11-28T16:36:14.353Z,32.23
2022-11-28T16:38:43.772Z,28.43
2022-11-28T16:41:19.087Z,28.87
2022-11-28T16:43:51.012Z,29.13
2022-11-28T16:46:22.796Z,29.37
2022-11-28T16:48:54.593Z,27.23
2022-11-28T16:51:33.269Z,25.80
2022-11-28T16:54:02.155Z,26.60
2022-11-28T16:56:45.379Z,27.27
2022-11-28T16:59:15.924Z,27.33
2022-11-28T17:01:46.073Z,28.47
2022-11-28T17:04:22.547Z,26.57
2022-11-28T17:06:50.978Z,27.00
2022-11-28T17:09:19.440Z,25.20
2022-11-28T17:11:55.466Z,24.83
2022-11-28T17:14:23.480Z,23.77
2022-11-28T17:16:51.803Z,25.90
2022-11-28T17:19:19.868Z,25.17
2022-11-28T17:21:51.049Z,23.93
2022-11-28T17:24:23.122Z,26.47
2022-11-28T17:26:54.041Z,27.40
2022-11-28T17:29:22.875Z,26.03
2022-11-28T17:31:51.110Z,27.47
2022-11-28T17:34:21.520Z,23.57
2022-11-28T17:36:50.142Z,26.17
2022-11-28T17:39:18.779Z,26.47
2022-11-28T17:41:47.821Z,24.83
2022-11-28T17:44:22.446Z,23.07
2022-11-28T17:46:51.489Z,21.73
2022-11-28T17:49:20.272Z,25.97
2022-11-28T17:51:48.480Z,24.07
2022-11-28T17:54:18.830Z,23.17
2022-11-28T17:56:47.732Z,22.43
2022-11-28T17:59:18.595Z,25.47
2022-11-28T18:01:47.261Z,24.83
2022-11-28T18:04:15.675Z,23.40
2022-11-28T18:06:45.183Z,26.90
2022-11-28T18:09:14.811Z,29.60
2022-11-28T18:11:46.249Z,28.27
2022-11-28T18:14:14.550Z,29.73
2022-11-28T18:16:44.170Z,30.27
2022-11-28T18:19:14.852Z,30.37
2022-11-28T18:21:42.951Z,30.77
2022-11-28T18:24:10.950Z,29.90
2022-11-28T18:26:38.989Z,28.40
2022-11-28T18:29:07.968Z,28.70
2022-11-28T18:31:37.258Z,32.20
2022-11-28T18:34:07.908Z,30.33
2022-11-28T18:36:38.350Z,30.57
2022-11-28T18:39:09.333Z,30.40
2022-11-28T18:41:39.364Z,30.27
2022-11-28T18:44:07.905Z,31.00
2022-11-28T18:46:36.463Z,31.27
2022-11-28T18:49:06.065Z,30.67
2022-11-28T18:51:36.782Z,30.07
2022-11-28T18:54:06.229Z,30.37
2022-11-28T18:56:35.001Z,29.50
2022-11-28T18:59:03.047Z,31.00
2022-11-28T19:01:33.141Z,31.20
2022-11-28T19:04:02.970Z,32.80
2022-11-28T19:06:33.092Z,32.70
2022-11-28T19:09:03.095Z,30.93
2022-11-28T19:11:33.556Z,29.30
2022-11-28T19:14:01.640Z,31.03
2022-11-28T19:16:31.709Z,30.60
2022-11-28T19:19:01.543Z,30.77
2022-11-28T19:21:34.037Z,36.37
2022-11-28T19:24:02.971Z,33.37
2022-11-28T19:26:33.603Z,34.00
2022-11-28T19:29:02.247Z,34.40
2022-11-28T19:31:31.818Z,38.70
2022-11-28T19:34:01.982Z,34.80
2022-11-28T19:36:31.075Z,33.73
2022-11-28T19:39:00.912Z,35.90
2022-11-28T19:41:29.848Z,36.13
2022-11-28T19:43:58.005Z,39.63
2022-11-28T19:46:29.215Z,37.00
2022-11-28T19:49:00.179Z,35.80
2022-11-28T19:51:28.425Z,37.80
2022-11-28T19:54:02.669Z,38.03
2022-11-28T19:56:32.895Z,37.87
2022-11-28T19:59:01.364Z,38.30
2022-11-28T20:01:31.183Z,35.10
2022-11-28T20:03:59.780Z,40.63
2022-11-28T20:06:29.704Z,41.47
2022-11-28T20:09:00.676Z,43.50
2022-11-28T20:11:32.180Z,40.60
2022-11-28T20:14:04.021Z,44.00
2022-11-28T20:16:33.346Z,44.37
2022-11-28T20:19:02.785Z,43.77
2022-11-28T20:21:31.873Z,44.60
2022-11-28T20:24:04.276Z,45.93
2022-11-28T20:26:37.929Z,42.93
2022-11-28T20:29:08.203Z,46.10
2022-11-28T20:31:37.984Z,44.47
2022-11-28T20:34:07.099Z,45.07
2022-11-28T20:36:36.276Z,44.73
2022-11-28T20:39:05.832Z,42.43
2022-11-28T20:41:34.521Z,43.40
2022-11-28T20:44:02.624Z,44.07
2022-11-28T20:46:35.570Z,41.80
2022-11-28T20:49:05.521Z,43.87
2022-11-28T20:51:35.433Z,41.37
2022-11-28T20:54:06.103Z,42.50
2022-11-28T20:57:05.004Z,42.57
2022-11-28T20:59:27.156Z,42.30
2022-11-28T21:01:56.620Z,43.60
2022-11-28T21:04:24.665Z,42.87
2022-11-28T21:06:52.768Z,40.47
2022-11-28T21:09:20.818Z,42.87
2022-11-28T21:11:58.655Z,43.23
2022-11-28T21:14:27.946Z,37.83
2022-11-28T21:16:57.587Z,39.67
2022-11-28T21:19:25.892Z,39.57
2022-11-28T21:21:53.968Z,45.10
2022-11-28T21:24:22.318Z,38.63
2022-11-28T21:26:54.056Z,42.97
2022-11-28T21:29:23.455Z,42.23
2022-11-28T21:31:51.551Z,43.43
2022-11-28T21:34:22.314Z,39.97
2022-11-28T21:36:50.870Z,41.97
2022-11-28T21:39:21.857Z,39.47
2022-11-28T21:41:53.184Z,41.63
2022-11-28T21:44:21.201Z,42.53
2022-11-28T21:46:49.329Z,44.20
2022-11-28T21:49:17.310Z,43.93
2022-11-28T21:51:47.093Z,43.37
2022-11-28T21:54:15.106Z,39.23
2022-11-28T21:56:43.145Z,41.60
2022-11-28T21:59:13.437Z,39.47
2022-11-28T22:01:41.621Z,42.07
2022-11-28T22:04:11.420Z,43.70
2022-11-28T22:06:39.493Z,40.83
2022-11-28T22:09:10.220Z,44.57
2022-11-28T22:11:39.557Z,43.10
2022-11-28T22:14:09.153Z,44.57
2022-11-28T22:16:37.231Z,43.53
2022-11-28T22:19:05.249Z,40.77
2022-11-28T22:24:22.826Z,42.30
2022-11-28T22:26:51.047Z,44.50
2022-11-28T22:29:19.115Z,43.03
2022-11-28T22:31:47.215Z,45.10
2022-11-28T22:34:15.269Z,45.37
2022-11-28T22:36:43.231Z,42.80
2022-11-28T22:39:11.723Z,42.00
2022-11-28T22:41:41.345Z,41.87
2022-11-28T22:44:11.223Z,45.70
2022-11-28T22:46:39.521Z,47.10
2022-11-28T22:49:07.979Z,44.50
2022-11-28T22:51:36.973Z,50.77
2022-11-28T22:54:05.276Z,51.37
2022-11-28T22:56:35.500Z,52.47
2022-11-28T22:59:05.758Z,55.47
2022-11-28T23:01:35.170Z,51.87
2022-11-28T23:04:03.209Z,50.97
2022-11-28T23:06:32.989Z,46.17
2022-11-28T23:09:02.673Z,43.47
2022-11-28T23:11:32.687Z,42.97
2022-11-28T23:14:01.258Z,42.80
2022-11-28T23:16:32.438Z,41.30
2022-11-28T23:19:02.904Z,40.27
2022-11-28T23:21:33.108Z,41.90
2022-11-28T23:24:01.450Z,43.37
2022-11-28T23:26:31.347Z,45.10
2022-11-28T23:29:01.210Z,41.60
2022-11-28T23:31:32.673Z,47.47
2022-11-28T23:34:01.642Z,45.10
2022-11-28T23:36:33.715Z,47.40
2022-11-28T23:39:07.988Z,44.37
2022-11-28T23:41:36.221Z,47.80
2022-11-28T23:44:04.186Z,47.17
2022-11-28T23:46:34.507Z,45.00
2022-11-28T23:49:05.263Z,48.40
2022-11-28T23:51:33.683Z,47.63
2022-11-28T23:54:01.755Z,43.57
2022-11-28T23:56:31.355Z,44.60
2022-11-28T23:59:02.320Z,42.57
